Time;durP1;ratioP1;P1;durP2;ratioP2;P2;SDS_P1;SDS_P2;PMS_P1;PMS_P2;Temp;Humidity;BMP_temperature;BMP_pressure;BME280_temperature;BME280_humidity;BME280_pressure;Samples;Min_cycle;Max_cycle;Signal;HPM_P1;HPM_P2
2022/10/10 00:01:11;;;;;;;;;12.00;9.75;;;;;;;;5061378;28;62581;-78
2022/10/10 00:03:36;;;;;;;;;16.00;10.00;;;;;;;;5062016;28;61699;-78
2022/10/10 00:06:01;;;;;;;;;12.25;10.00;;;;;;;;5061499;28;61908;-78
2022/10/10 00:08:27;;;;;;;;;16.50;11.50;;;;;;;;5062023;28;62143;-78
2022/10/10 00:10:52;;;;;;;;;15.25;12.00;;;;;;;;5042875;28;63702;-78
2022/10/10 00:13:17;;;;;;;;;9.50;8.50;;;;;;;;5061929;28;61714;-78
2022/10/10 00:15:43;;;;;;;;;14.50;10.75;;;;;;;;5061972;28;61671;-78
2022/10/10 00:18:08;;;;;;;;;13.50;12.25;;;;;;;;5061900;28;61794;-78
2022/10/10 00:20:33;;;;;;;;;11.50;10.75;;;;;;;;5041931;28;63507;-78
2022/10/10 00:22:59;;;;;;;;;8.75;8.75;;;;;;;;5061880;28;61836;-78
2022/10/10 00:25:24;;;;;;;;;13.25;10.00;;;;;;;;5043534;28;61848;-78
2022/10/10 00:27:49;;;;;;;;;9.75;8.75;;;;;;;;5043515;28;61795;-78
2022/10/10 00:30:14;;;;;;;;;10.00;8.50;;;;;;;;5042491;28;63777;-78
2022/10/10 00:32:40;;;;;;;;;15.50;14.00;;;;;;;;5041912;28;61897;-78
2022/10/10 00:35:05;;;;;;;;;17.00;11.50;;;;;;;;5041188;28;61795;-78
2022/10/10 00:37:31;;;;;;;;;13.25;10.00;;;;;;;;5023272;28;62124;-78
2022/10/10 00:39:56;;;;;;;;;10.25;10.00;;;;;;;;5040773;28;61976;-78
2022/10/10 00:42:21;;;;;;;;;13.75;12.75;;;;;;;;5041326;28;61980;-78
2022/10/10 00:45:07;;;;;;;;;14.75;13.00;;;;;;;;5041729;28;61943;-78
2022/10/10 00:47:32;;;;;;;;;18.00;15.00;;;;;;;;5040916;28;61770;-78
2022/10/10 00:49:58;;;;;;;;;17.00;11.75;;;;;;;;5040275;28;62746;-78
2022/10/10 00:52:23;;;;;;;;;16.00;14.25;;;;;;;;5023579;28;62023;-78
2022/10/10 00:54:48;;;;;;;;;17.00;13.00;;;;;;;;5044702;28;61738;-78
2022/10/10 00:57:14;;;;;;;;;26.75;17.50;;;;;;;;5026710;28;61953;-78
2022/10/10 00:59:41;;;;;;;;;25.25;15.25;;;;;;;;5043937;28;62005;-78
2022/10/10 01:02:06;;;;;;;;;20.00;15.25;;;;;;;;5044604;28;61910;-78
2022/10/10 01:04:34;;;;;;;;;21.75;17.25;;;;;;;;5044294;28;61790;-78
2022/10/10 01:07:00;;;;;;;;;24.50;16.75;;;;;;;;5044201;28;62197;-78
2022/10/10 01:09:27;;;;;;;;;30.25;21.00;;;;;;;;5025839;28;63720;-78
2022/10/10 01:12:01;;;;;;;;;29.00;23.00;;;;;;;;5026231;28;62104;-78
2022/10/10 01:14:46;;;;;;;;;34.25;23.50;;;;;;;;5044391;28;61990;-78
2022/10/10 01:17:17;;;;;;;;;26.50;22.25;;;;;;;;5044497;28;62027;-78
2022/10/10 01:20:03;;;;;;;;;20.75;15.00;;;;;;;;5025161;28;64012;-78
2022/10/10 01:22:47;;;;;;;;;15.50;10.75;;;;;;;;5043961;28;62009;-78
2022/10/10 01:25:22;;;;;;;;;15.50;14.25;;;;;;;;5044197;28;61741;-78
2022/10/10 01:27:59;;;;;;;;;18.25;15.00;;;;;;;;5044068;28;62112;-78
2022/10/10 01:30:25;;;;;;;;;17.50;14.25;;;;;;;;5048056;28;62041;-78
2022/10/10 01:32:59;;;;;;;;;22.00;16.75;;;;;;;;5064006;28;61758;-78
2022/10/10 01:35:33;;;;;;;;;21.75;15.75;;;;;;;;5064350;28;62000;-78
2022/10/10 01:38:08;;;;;;;;;18.50;14.00;;;;;;;;5064380;28;61742;-78
2022/10/10 01:40:47;;;;;;;;;19.75;14.25;;;;;;;;5063554;28;61974;-78
2022/10/10 01:43:13;;;;;;;;;16.75;14.25;;;;;;;;5064218;28;61816;-78
2022/10/10 01:45:48;;;;;;;;;16.00;14.00;;;;;;;;5063773;28;62073;-78
2022/10/10 01:48:17;;;;;;;;;12.75;11.00;;;;;;;;5064065;28;62114;-78
2022/10/10 01:51:01;;;;;;;;;15.50;12.75;;;;;;;;5062574;28;61845;-78
2022/10/10 01:53:42;;;;;;;;;15.25;15.25;;;;;;;;5046153;28;61797;-78
2022/10/10 01:56:12;;;;;;;;;18.50;17.25;;;;;;;;5064083;28;61987;-78
2022/10/10 01:58:53;;;;;;;;;21.25;17.25;;;;;;;;5045694;28;62282;-78
2022/10/10 02:01:35;;;;;;;;;17.75;14.50;;;;;;;;5063080;28;61883;-78
2022/10/10 02:04:12;;;;;;;;;20.00;16.50;;;;;;;;5062821;28;62032;-78
2022/10/10 02:06:43;;;;;;;;;18.25;15.25;;;;;;;;5045212;28;62053;-78
2022/10/10 02:09:11;;;;;;;;;16.00;13.75;;;;;;;;5045987;28;61688;-78
2022/10/10 02:11:38;;;;;;;;;16.00;13.00;;;;;;;;5062604;28;62914;-78
2022/10/10 02:14:13;;;;;;;;;20.25;18.75;;;;;;;;5063628;28;61934;-78
2022/10/10 02:16:41;;;;;;;;;20.00;15.00;;;;;;;;5063248;28;61937;-78
2022/10/10 02:19:09;;;;;;;;;14.25;13.00;;;;;;;;5063575;28;61750;-79
2022/10/10 02:21:36;;;;;;;;;17.00;13.75;;;;;;;;5062455;28;61746;-78
2022/10/10 02:24:04;;;;;;;;;18.00;15.00;;;;;;;;5045252;28;61816;-78
2022/10/10 02:26:30;;;;;;;;;23.50;13.00;;;;;;;;5063243;28;61849;-78
2022/10/10 02:28:58;;;;;;;;;15.00;13.75;;;;;;;;5045097;28;61821;-78
2022/10/10 02:31:28;;;;;;;;;18.50;15.00;;;;;;;;5062127;28;62826;-78
2022/10/10 02:33:56;;;;;;;;;16.25;13.75;;;;;;;;5063019;28;62469;-78
2022/10/10 02:36:23;;;;;;;;;19.75;12.75;;;;;;;;5044625;28;61882;-78
2022/10/10 02:38:48;;;;;;;;;18.75;15.00;;;;;;;;5063510;28;62026;-78
2022/10/10 02:41:16;;;;;;;;;17.50;14.75;;;;;;;;5062633;28;61675;-78
2022/10/10 02:43:41;;;;;;;;;20.50;14.25;;;;;;;;5063115;28;62153;-78
2022/10/10 02:46:09;;;;;;;;;13.00;12.00;;;;;;;;5063039;28;61822;-78
2022/10/10 02:48:34;;;;;;;;;13.75;12.25;;;;;;;;5044848;28;61802;-78
2022/10/10 02:51:00;;;;;;;;;17.00;16.00;;;;;;;;5061656;28;62175;-78
2022/10/10 02:53:25;;;;;;;;;21.50;12.75;;;;;;;;5044873;28;62006;-78
2022/10/10 02:55:50;;;;;;;;;16.75;15.00;;;;;;;;5062883;28;61904;-78
2022/10/10 02:58:16;;;;;;;;;18.75;13.75;;;;;;;;5044669;28;61886;-78
2022/10/10 03:00:41;;;;;;;;;21.50;16.50;;;;;;;;5044027;28;63724;-78
2022/10/10 03:03:06;;;;;;;;;10.25;10.25;;;;;;;;5062560;28;61789;-78
2022/10/10 03:05:31;;;;;;;;;16.25;15.25;;;;;;;;5063005;28;61844;-78
2022/10/10 03:07:57;;;;;;;;;27.25;14.25;;;;;;;;5044066;28;62179;-78
2022/10/10 03:10:22;;;;;;;;;14.00;13.00;;;;;;;;5062138;28;61775;-78
2022/10/10 03:12:47;;;;;;;;;17.25;13.25;;;;;;;;5044514;28;62098;-78
2022/10/10 03:15:12;;;;;;;;;13.25;11.50;;;;;;;;5062221;28;62269;-78
2022/10/10 03:17:38;;;;;;;;;23.25;12.75;;;;;;;;5062894;28;61962;-78
2022/10/10 03:20:03;;;;;;;;;13.25;10.75;;;;;;;;5061581;28;62099;-78
2022/10/10 03:22:29;;;;;;;;;14.00;12.50;;;;;;;;5044184;28;62004;-79
2022/10/10 03:24:54;;;;;;;;;15.50;13.50;;;;;;;;5062372;28;61903;-78
2022/10/10 03:27:19;;;;;;;;;15.25;13.75;;;;;;;;5044400;28;61960;-78
2022/10/10 03:29:44;;;;;;;;;19.50;12.75;;;;;;;;5061685;28;61846;-78
2022/10/10 03:32:10;;;;;;;;;15.25;12.50;;;;;;;;5043520;28;62317;-78
2022/10/10 03:34:35;;;;;;;;;16.75;13.25;;;;;;;;5044311;28;61747;-78
2022/10/10 03:37:00;;;;;;;;;15.00;13.50;;;;;;;;5061913;28;62135;-78
2022/10/10 03:39:26;;;;;;;;;15.25;12.00;;;;;;;;5061777;28;61925;-78
2022/10/10 03:41:51;;;;;;;;;13.00;12.00;;;;;;;;5062199;28;61865;-78
2022/10/10 03:44:16;;;;;;;;;13.50;10.50;;;;;;;;5043752;28;61778;-78
2022/10/10 03:46:41;;;;;;;;;15.00;10.00;;;;;;;;5062485;28;61723;-78
2022/10/10 03:49:07;;;;;;;;;15.00;11.50;;;;;;;;5061156;28;62819;-78
2022/10/10 03:51:32;;;;;;;;;16.50;14.75;;;;;;;;5061543;28;61936;-78
2022/10/10 03:53:57;;;;;;;;;15.50;13.25;;;;;;;;5062210;28;61738;-78
2022/10/10 03:56:22;;;;;;;;;20.25;9.25;;;;;;;;5043881;28;61746;-78
2022/10/10 03:58:48;;;;;;;;;15.50;13.50;;;;;;;;5061223;28;62682;-78
2022/10/10 04:01:13;;;;;;;;;21.75;12.25;;;;;;;;5043516;28;62057;-78
2022/10/10 04:03:39;;;;;;;;;9.25;9.00;;;;;;;;5061913;28;61683;-78
2022/10/10 04:06:05;;;;;;;;;13.25;12.75;;;;;;;;5061420;28;61915;-78
2022/10/10 04:08:30;;;;;;;;;11.75;10.50;;;;;;;;5061294;28;61840;-78
2022/10/10 04:10:56;;;;;;;;;14.75;11.00;;;;;;;;5061878;28;61852;-78
2022/10/10 04:13:22;;;;;;;;;13.25;12.00;;;;;;;;5061607;28;61713;-78
2022/10/10 04:15:51;;;;;;;;;14.25;11.25;;;;;;;;5062066;28;61872;-79
2022/10/10 04:18:17;;;;;;;;;11.00;10.50;;;;;;;;5042829;28;65384;-78
2022/10/10 04:20:42;;;;;;;;;11.50;11.00;;;;;;;;5043558;28;61930;-78
2022/10/10 04:23:07;;;;;;;;;13.00;12.00;;;;;;;;5043415;28;61868;-78
2022/10/10 04:25:32;;;;;;;;;9.00;9.00;;;;;;;;5061783;28;61812;-78
2022/10/10 04:27:58;;;;;;;;;7.00;5.75;;;;;;;;5062896;28;63402;-78
2022/10/10 04:30:23;;;;;;;;;12.50;9.00;;;;;;;;5060352;28;61980;-78
2022/10/10 04:32:48;;;;;;;;;11.75;9.50;;;;;;;;5027060;28;62265;-78
2022/10/10 04:35:13;;;;;;;;;12.50;10.00;;;;;;;;5044682;28;61806;-78
2022/10/10 04:37:39;;;;;;;;;15.50;8.50;;;;;;;;5044026;28;61913;-78
2022/10/10 04:40:04;;;;;;;;;12.75;11.00;;;;;;;;5026903;28;61947;-78
2022/10/10 04:42:29;;;;;;;;;12.00;10.00;;;;;;;;5044477;28;61791;-78
2022/10/10 04:44:55;;;;;;;;;12.25;8.75;;;;;;;;5045028;28;62156;-78
2022/10/10 04:47:20;;;;;;;;;13.00;11.00;;;;;;;;5025964;28;63565;-78
2022/10/10 04:49:46;;;;;;;;;12.75;12.00;;;;;;;;5026209;28;61915;-78
2022/10/10 04:52:12;;;;;;;;;15.50;13.25;;;;;;;;5044105;28;62142;-78
2022/10/10 04:54:37;;;;;;;;;15.00;12.50;;;;;;;;5044887;28;61875;-78
2022/10/10 04:57:02;;;;;;;;;11.50;11.00;;;;;;;;5025601;28;64800;-78
2022/10/10 04:59:28;;;;;;;;;9.00;9.00;;;;;;;;5044628;28;61763;-78
2022/10/10 05:01:59;;;;;;;;;10.00;8.00;;;;;;;;5044601;28;61874;-78
2022/10/10 05:04:25;;;;;;;;;10.00;10.00;;;;;;;;5026297;28;61846;-81
2022/10/10 05:06:58;;;;;;;;;12.75;12.75;;;;;;;;5025522;28;64217;-80
2022/10/10 05:09:23;;;;;;;;;10.00;7.50;;;;;;;;5026158;28;61842;-79
2022/10/10 05:11:49;;;;;;;;;19.75;18.50;;;;;;;;5026496;28;61776;-76
2022/10/10 05:14:14;;;;;;;;;17.75;15.00;;;;;;;;5045155;28;62049;-79
2022/10/10 05:16:39;;;;;;;;;18.25;15.50;;;;;;;;5044216;28;62673;-79
2022/10/10 05:19:05;;;;;;;;;14.75;12.75;;;;;;;;5043172;28;62338;-78
2022/10/10 05:21:30;;;;;;;;;13.75;9.25;;;;;;;;5025540;28;62144;-79
2022/10/10 05:23:55;;;;;;;;;14.00;12.75;;;;;;;;5043908;28;61892;-78
2022/10/10 05:26:21;;;;;;;;;16.25;12.00;;;;;;;;5042422;28;61771;-77
2022/10/10 05:28:46;;;;;;;;;10.75;8.75;;;;;;;;5025216;28;62028;-77
2022/10/10 05:31:11;;;;;;;;;12.75;10.75;;;;;;;;5029032;28;62363;-78
2022/10/10 05:33:37;;;;;;;;;8.00;6.00;;;;;;;;5042863;28;62246;-78
2022/10/10 05:36:04;;;;;;;;;10.00;7.00;;;;;;;;5042439;28;61720;-78
2022/10/10 05:38:29;;;;;;;;;13.25;9.75;;;;;;;;5024548;28;62149;-78
2022/10/10 05:40:55;;;;;;;;;12.50;8.00;;;;;;;;5025075;28;61788;-78
2022/10/10 05:43:20;;;;;;;;;10.75;10.75;;;;;;;;5042944;28;61826;-76
2022/10/10 05:45:45;;;;;;;;;12.00;10.00;;;;;;;;5042485;28;62678;-78
2022/10/10 05:48:10;;;;;;;;;9.25;6.50;;;;;;;;5042897;28;62377;-76
2022/10/10 05:50:38;;;;;;;;;11.75;9.75;;;;;;;;5042646;28;62080;-77
2022/10/10 05:53:05;;;;;;;;;9.75;8.25;;;;;;;;5024640;28;61958;-77
2022/10/10 05:55:31;;;;;;;;;5.75;5.75;;;;;;;;5024243;28;63541;-75
2022/10/10 05:57:56;;;;;;;;;12.75;9.00;;;;;;;;5042441;28;61810;-75
2022/10/10 06:00:21;;;;;;;;;14.00;9.50;;;;;;;;5042900;28;61728;-75
2022/10/10 06:02:46;;;;;;;;;13.00;5.00;;;;;;;;5043447;28;61986;-76
2022/10/10 06:05:12;;;;;;;;;15.00;9.50;;;;;;;;5042210;28;61926;-76
2022/10/10 06:07:37;;;;;;;;;8.75;7.25;;;;;;;;5042112;28;62277;-76
2022/10/10 06:10:03;;;;;;;;;8.50;8.00;;;;;;;;5043096;28;61881;-76
2022/10/10 06:12:28;;;;;;;;;12.00;7.50;;;;;;;;5043264;28;61721;-77
2022/10/10 06:14:53;;;;;;;;;12.50;9.50;;;;;;;;5041543;28;61902;-77
2022/10/10 06:17:18;;;;;;;;;15.75;9.25;;;;;;;;5024357;28;62154;-77
2022/10/10 06:19:44;;;;;;;;;8.50;8.50;;;;;;;;5042950;28;61761;-79
2022/10/10 06:22:09;;;;;;;;;10.00;7.75;;;;;;;;5042865;28;61845;-77
2022/10/10 06:24:34;;;;;;;;;7.75;7.75;;;;;;;;5024615;28;63579;-78
2022/10/10 06:26:59;;;;;;;;;7.00;7.00;;;;;;;;5042962;28;61739;-78
2022/10/10 06:29:25;;;;;;;;;7.75;6.75;;;;;;;;5025247;28;61741;-78
2022/10/10 06:31:50;;;;;;;;;14.75;8.75;;;;;;;;5028717;28;61690;-79
2022/10/10 06:34:15;;;;;;;;;6.50;5.25;;;;;;;;5024356;28;63500;-78
2022/10/10 06:36:41;;;;;;;;;8.50;8.50;;;;;;;;5024181;28;62305;-78
2022/10/10 06:39:06;;;;;;;;;12.00;6.00;;;;;;;;5042573;28;62169;-78
2022/10/10 06:41:31;;;;;;;;;8.75;5.75;;;;;;;;5042716;28;61880;-78
2022/10/10 06:43:57;;;;;;;;;8.00;7.00;;;;;;;;5023954;28;64835;-78
2022/10/10 06:46:22;;;;;;;;;13.50;9.00;;;;;;;;5041806;28;61845;-79
2022/10/10 06:48:48;;;;;;;;;5.75;4.00;;;;;;;;5041055;28;61895;-79
2022/10/10 06:51:14;;;;;;;;;6.00;6.00;;;;;;;;5040859;28;61889;-80
2022/10/10 06:53:39;;;;;;;;;10.00;7.75;;;;;;;;5023475;28;63877;-79
2022/10/10 06:56:05;;;;;;;;;10.50;6.75;;;;;;;;5041089;28;61841;-82
2022/10/10 06:58:31;;;;;;;;;10.50;8.50;;;;;;;;5042219;28;61814;-80
2022/10/10 07:00:58;;;;;;;;;10.00;8.25;;;;;;;;5024068;28;61780;-79
2022/10/10 07:03:23;;;;;;;;;10.50;8.75;;;;;;;;5041852;28;61732;-79
2022/10/10 07:05:49;;;;;;;;;10.25;7.75;;;;;;;;5041580;28;61909;-79
2022/10/10 07:08:15;;;;;;;;;8.75;8.25;;;;;;;;5041802;28;61884;-80
2022/10/10 07:10:40;;;;;;;;;12.25;8.25;;;;;;;;5024541;28;61871;-79
2022/10/10 07:13:05;;;;;;;;;5.75;5.75;;;;;;;;5041293;28;62628;-79
2022/10/10 07:15:30;;;;;;;;;9.50;7.50;;;;;;;;5024341;28;61987;-79
2022/10/10 07:17:57;;;;;;;;;12.00;8.75;;;;;;;;5041937;28;61711;-79
2022/10/10 07:20:22;;;;;;;;;10.25;8.50;;;;;;;;5041924;28;61799;-79
2022/10/10 07:22:48;;;;;;;;;10.25;10.00;;;;;;;;5041365;28;62182;-80
2022/10/10 07:25:13;;;;;;;;;13.50;9.25;;;;;;;;5042082;28;61927;-79
2022/10/10 07:27:38;;;;;;;;;8.00;7.00;;;;;;;;5041807;28;61933;-79
2022/10/10 07:30:04;;;;;;;;;10.50;9.00;;;;;;;;5042383;28;62075;-79
2022/10/10 07:32:29;;;;;;;;;13.00;8.25;;;;;;;;5022666;28;63465;-80
2022/10/10 07:34:57;;;;;;;;;8.50;8.50;;;;;;;;5041792;28;61790;-80
2022/10/10 07:37:22;;;;;;;;;11.50;9.50;;;;;;;;5023467;28;61882;-77
2022/10/10 07:39:47;;;;;;;;;8.25;7.25;;;;;;;;5042374;28;62269;-78
2022/10/10 07:42:12;;;;;;;;;10.50;8.00;;;;;;;;5041116;28;61736;-78
2022/10/10 07:44:38;;;;;;;;;10.50;8.00;;;;;;;;5041469;28;61640;-81
2022/10/10 07:47:03;;;;;;;;;7.50;6.00;;;;;;;;5041226;28;61688;-82
2022/10/10 07:49:28;;;;;;;;;11.50;7.75;;;;;;;;5041642;28;61742;-82
2022/10/10 07:51:54;;;;;;;;;10.00;7.25;;;;;;;;5039842;28;62583;-78
2022/10/10 07:54:19;;;;;;;;;9.50;8.00;;;;;;;;5041635;28;61795;-78
2022/10/10 07:56:45;;;;;;;;;12.75;10.00;;;;;;;;5022421;28;61955;-78
2022/10/10 07:59:10;;;;;;;;;13.00;11.00;;;;;;;;5040201;28;61843;-78
2022/10/10 08:01:35;;;;;;;;;9.50;9.50;;;;;;;;5040989;28;61779;-78
2022/10/10 08:04:00;;;;;;;;;11.75;10.25;;;;;;;;5043600;28;61695;-79
2022/10/10 08:06:26;;;;;;;;;8.50;7.75;;;;;;;;5027235;28;62145;-77
2022/10/10 08:08:51;;;;;;;;;7.50;6.50;;;;;;;;5045364;28;61746;-78
2022/10/10 08:11:17;;;;;;;;;11.25;8.00;;;;;;;;5044184;28;61841;-78
2022/10/10 08:13:42;;;;;;;;;9.00;7.75;;;;;;;;5026722;28;62101;-78
2022/10/10 08:16:07;;;;;;;;;10.25;8.25;;;;;;;;5027182;28;61984;-78
2022/10/10 08:18:33;;;;;;;;;9.00;7.00;;;;;;;;5044896;28;61776;-78
2022/10/10 08:21:02;;;;;;;;;7.75;7.75;;;;;;;;5044383;28;62608;-78
2022/10/10 08:23:28;;;;;;;;;10.75;7.50;;;;;;;;5044834;28;62220;-78
2022/10/10 08:25:53;;;;;;;;;9.75;8.75;;;;;;;;5045172;28;61726;-78
2022/10/10 08:28:18;;;;;;;;;9.50;8.00;;;;;;;;5026904;28;61894;-78
2022/10/10 08:30:44;;;;;;;;;12.50;10.00;;;;;;;;5029896;28;64784;-78
2022/10/10 08:33:09;;;;;;;;;9.50;8.00;;;;;;;;5026346;28;61723;-77
2022/10/10 08:35:37;;;;;;;;;10.50;8.00;;;;;;;;5044878;28;61746;-78
2022/10/10 08:38:03;;;;;;;;;7.00;7.00;;;;;;;;5026181;28;62169;-77
2022/10/10 08:40:28;;;;;;;;;14.50;11.00;;;;;;;;5044107;28;61680;-78
2022/10/10 08:42:55;;;;;;;;;7.00;6.00;;;;;;;;5044952;28;61885;-78
2022/10/10 08:45:25;;;;;;;;;11.25;9.00;;;;;;;;5026632;28;61968;-78
2022/10/10 08:47:56;;;;;;;;;11.25;11.00;;;;;;;;5026141;28;61851;-78
2022/10/10 08:50:32;;;;;;;;;9.00;9.00;;;;;;;;5043685;28;62016;-78
2022/10/10 08:53:07;;;;;;;;;18.25;13.25;;;;;;;;5025221;28;61754;-77
2022/10/10 08:55:33;;;;;;;;;12.00;8.50;;;;;;;;5025766;28;61974;-77
2022/10/10 08:58:02;;;;;;;;;14.75;10.50;;;;;;;;5025258;28;61946;-78
2022/10/10 09:00:31;;;;;;;;;10.75;9.75;;;;;;;;5042574;28;61992;-78
2022/10/10 09:02:59;;;;;;;;;12.75;10.00;;;;;;;;5025358;28;61716;-78
2022/10/10 09:05:24;;;;;;;;;7.75;6.25;;;;;;;;5025459;28;61963;-77
2022/10/10 09:07:52;;;;;;;;;8.25;7.75;;;;;;;;5042954;28;61936;-77
2022/10/10 09:10:23;;;;;;;;;4.50;4.25;;;;;;;;5042247;28;62600;-78
2022/10/10 09:12:54;;;;;;;;;9.50;7.00;;;;;;;;5042730;28;61861;-77
2022/10/10 09:15:22;;;;;;;;;7.00;6.00;;;;;;;;5024970;28;61804;-78
2022/10/10 09:18:03;;;;;;;;;6.00;6.00;;;;;;;;5042942;28;61791;-77
2022/10/10 09:20:40;;;;;;;;;8.50;5.50;;;;;;;;5023605;28;63767;-77
2022/10/10 09:23:24;;;;;;;;;8.50;5.25;;;;;;;;5042683;28;61961;-77
2022/10/10 09:25:55;;;;;;;;;7.00;7.00;;;;;;;;5042679;28;61866;-78
2022/10/10 09:28:32;;;;;;;;;11.25;7.75;;;;;;;;5024605;28;61978;-77
2022/10/10 09:30:58;;;;;;;;;8.25;8.00;;;;;;;;5027646;28;63802;-77
2022/10/10 09:33:30;;;;;;;;;5.50;5.00;;;;;;;;5042485;28;61988;-77
2022/10/10 09:35:57;;;;;;;;;10.75;7.75;;;;;;;;5042871;28;61855;-77
2022/10/10 09:38:28;;;;;;;;;10.50;6.00;;;;;;;;5042215;28;62119;-77
2022/10/10 09:40:58;;;;;;;;;6.25;6.00;;;;;;;;5024214;28;63772;-77
2022/10/10 09:43:28;;;;;;;;;7.25;7.25;;;;;;;;5042542;28;62259;-77
2022/10/10 09:45:56;;;;;;;;;8.00;5.75;;;;;;;;5024176;28;61846;-78
2022/10/10 09:48:27;;;;;;;;;11.25;6.25;;;;;;;;5041916;28;61914;-77
2022/10/10 09:50:53;;;;;;;;;6.75;6.50;;;;;;;;4977296;28;1335457;-77
2022/10/10 09:53:18;;;;;;;;;6.00;5.00;;;;;;;;5025329;28;62193;-77
2022/10/10 09:55:45;;;;;;;;;7.00;5.25;;;;;;;;5043714;28;62059;-76
2022/10/10 09:58:13;;;;;;;;;8.50;8.50;;;;;;;;5043454;28;61758;-77
2022/10/10 10:00:38;;;;;;;;;7.00;6.00;;;;;;;;5024413;28;63807;-77
2022/10/10 10:03:08;;;;;;;;;8.00;6.50;;;;;;;;5043245;28;61948;-77
2022/10/10 10:05:34;;;;;;;;;8.25;6.00;;;;;;;;5024835;28;61747;-76
2022/10/10 10:07:59;;;;;;;;;7.00;6.25;;;;;;;;5043071;28;61878;-76
2022/10/10 10:10:26;;;;;;;;;12.75;7.25;;;;;;;;5042615;28;61998;-77
2022/10/10 10:12:52;;;;;;;;;6.75;4.75;;;;;;;;5043261;28;62600;-77
2022/10/10 10:15:19;;;;;;;;;11.50;7.25;;;;;;;;5025300;28;61961;-77
2022/10/10 10:17:44;;;;;;;;;7.50;6.50;;;;;;;;5043049;28;62095;-77
2022/10/10 10:20:28;;;;;;;;;7.50;5.25;;;;;;;;5042767;28;62102;-77
2022/10/10 10:22:53;;;;;;;;;5.50;5.50;;;;;;;;5024601;28;61960;-77
2022/10/10 10:25:29;;;;;;;;;12.00;8.25;;;;;;;;5042112;28;62273;-77
2022/10/10 10:28:09;;;;;;;;;7.25;5.75;;;;;;;;5025838;28;61813;-77
2022/10/10 10:30:35;;;;;;;;;9.50;6.50;;;;;;;;5042170;28;62718;-76
2022/10/10 10:33:09;;;;;;;;;9.75;5.75;;;;;;;;5024732;28;61723;-76
2022/10/10 10:35:50;;;;;;;;;7.00;6.00;;;;;;;;5024701;28;61961;-77
2022/10/10 10:38:15;;;;;;;;;10.75;5.50;;;;;;;;5042666;28;61838;-77
2022/10/10 10:40:49;;;;;;;;;7.25;5.75;;;;;;;;5042077;28;61808;-76
2022/10/10 10:43:24;;;;;;;;;9.00;6.00;;;;;;;;5042767;28;61784;-76
2022/10/10 10:46:04;;;;;;;;;7.25;5.75;;;;;;;;5042807;28;61824;-77
2022/10/10 10:48:38;;;;;;;;;4.75;4.25;;;;;;;;5024484;28;62415;-77
2022/10/10 10:51:04;;;;;;;;;7.50;6.75;;;;;;;;5042023;28;62680;-77
2022/10/10 10:53:29;;;;;;;;;8.50;6.00;;;;;;;;5024272;28;61749;-76
2022/10/10 10:55:57;;;;;;;;;7.75;6.00;;;;;;;;5042482;28;61888;-77
2022/10/10 10:58:35;;;;;;;;;8.25;7.00;;;;;;;;5024628;28;62077;-76
2022/10/10 11:01:01;;;;;;;;;5.25;5.25;;;;;;;;5041744;28;62740;-76
2022/10/10 11:03:47;;;;;;;;;5.75;5.50;;;;;;;;5042608;28;61755;-76
2022/10/10 11:06:24;;;;;;;;;9.00;6.25;;;;;;;;5041277;28;61904;-76
2022/10/10 11:09:16;;;;;;;;;8.00;6.50;;;;;;;;5024364;28;61837;-77
2022/10/10 11:11:56;;;;;;;;;6.75;6.00;;;;;;;;5037409;28;61845;-76
2022/10/10 11:14:30;;;;;;;;;7.75;6.75;;;;;;;;5042173;28;61960;-76
2022/10/10 11:17:03;;;;;;;;;9.25;7.00;;;;;;;;5042052;28;62130;-77
2022/10/10 11:19:36;;;;;;;;;5.00;5.00;;;;;;;;5041764;28;61778;-76
2022/10/10 11:22:01;;;;;;;;;6.25;6.00;;;;;;;;5041273;28;62799;-77
2022/10/10 11:24:29;;;;;;;;;9.25;7.00;;;;;;;;5023868;28;62000;-77
2022/10/10 11:26:56;;;;;;;;;10.75;6.50;;;;;;;;5041391;28;62104;-77
2022/10/10 11:29:28;;;;;;;;;7.50;7.50;;;;;;;;5042340;28;61696;-77
2022/10/10 11:31:56;;;;;;;;;9.50;7.00;;;;;;;;5040678;28;61700;-76
2022/10/10 11:34:25;;;;;;;;;7.50;7.50;;;;;;;;5042091;28;61833;-77
2022/10/10 11:36:53;;;;;;;;;14.00;8.00;;;;;;;;5041316;28;62016;-77
2022/10/10 11:39:37;;;;;;;;;7.00;5.50;;;;;;;;5024304;28;61753;-77
2022/10/10 11:42:10;;;;;;;;;8.00;7.25;;;;;;;;5022904;28;63550;-78
2022/10/10 11:44:45;;;;;;;;;9.50;7.75;;;;;;;;5042190;28;61750;-77
2022/10/10 11:47:20;;;;;;;;;8.75;7.75;;;;;;;;5041812;28;62031;-77
2022/10/10 11:50:12;;;;;;;;;11.75;6.00;;;;;;;;5041839;28;61827;-77
2022/10/10 11:52:46;;;;;;;;;9.75;8.25;;;;;;;;5018797;28;63565;-76
2022/10/10 11:55:17;;;;;;;;;8.25;8.00;;;;;;;;5041723;28;61940;-77
2022/10/10 11:57:53;;;;;;;;;10.75;8.25;;;;;;;;5041368;28;61846;-77
2022/10/10 12:00:19;;;;;;;;;8.50;8.00;;;;;;;;5023845;28;61917;-77
2022/10/10 12:02:45;;;;;;;;;11.25;7.50;;;;;;;;5041221;28;61960;-77
2022/10/10 12:05:16;;;;;;;;;9.00;5.50;;;;;;;;5023798;28;61981;-77
2022/10/10 12:07:57;;;;;;;;;11.00;7.00;;;;;;;;5023192;28;61855;-77
2022/10/10 12:10:25;;;;;;;;;11.00;9.00;;;;;;;;5041742;28;61862;-77
2022/10/10 12:12:53;;;;;;;;;11.50;9.25;;;;;;;;5022925;28;63975;-77
2022/10/10 12:15:27;;;;;;;;;8.25;8.25;;;;;;;;5023767;28;61915;-77
2022/10/10 12:17:53;;;;;;;;;13.00;9.00;;;;;;;;5023327;28;61839;-77
2022/10/10 12:20:18;;;;;;;;;9.25;8.00;;;;;;;;5041250;28;61800;-77
2022/10/10 12:22:43;;;;;;;;;11.50;7.50;;;;;;;;5040703;28;61814;-77
2022/10/10 12:25:21;;;;;;;;;14.75;9.00;;;;;;;;5022876;28;61944;-77
2022/10/10 12:28:00;;;;;;;;;11.75;9.00;;;;;;;;5041105;28;61898;-76
2022/10/10 12:30:26;;;;;;;;;9.75;7.25;;;;;;;;5024464;28;62112;-77
2022/10/10 12:32:53;;;;;;;;;7.00;6.75;;;;;;;;5040180;28;61769;-77
2022/10/10 12:35:31;;;;;;;;;11.00;9.00;;;;;;;;5041410;28;61911;-77
2022/10/10 12:38:13;;;;;;;;;10.00;8.50;;;;;;;;5040713;28;61920;-77
2022/10/10 12:40:56;;;;;;;;;10.25;7.50;;;;;;;;5041323;28;61787;-78
2022/10/10 12:43:36;;;;;;;;;12.75;9.50;;;;;;;;5040781;28;62631;-77
2022/10/10 12:46:19;;;;;;;;;11.50;8.00;;;;;;;;5041265;28;61782;-78
2022/10/10 12:48:55;;;;;;;;;12.75;9.75;;;;;;;;5042214;28;61999;-77
2022/10/10 12:51:21;;;;;;;;;7.25;7.25;;;;;;;;5044193;28;61953;-77
2022/10/10 12:53:49;;;;;;;;;9.00;8.25;;;;;;;;5043619;28;62711;-77
2022/10/10 12:56:15;;;;;;;;;7.67;7.67;;;;;;;;5044235;28;61942;-78
2022/10/10 12:58:41;;;;;;;;;10.00;9.00;;;;;;;;5044452;28;61808;-77
2022/10/10 13:01:17;;;;;;;;;14.50;11.00;;;;;;;;5044584;28;61862;-77
2022/10/10 13:03:45;;;;;;;;;9.00;7.67;;;;;;;;5043526;28;62646;-77
2022/10/10 13:06:29;;;;;;;;;18.00;9.33;;;;;;;;5043923;28;62032;-77
2022/10/10 13:08:54;;;;;;;;;9.33;7.00;;;;;;;;5025803;28;61764;-77
2022/10/10 13:11:20;;;;;;;;;14.33;9.00;;;;;;;;5026215;28;62121;-77
2022/10/10 13:13:49;;;;;;;;;12.00;8.50;;;;;;;;5025516;28;64441;-77
2022/10/10 13:16:17;;;;;;;;;12.00;8.00;;;;;;;;5043919;28;62000;-77
2022/10/10 13:18:53;;;;;;;;;9.33;8.67;;;;;;;;5044010;28;61902;-77
2022/10/10 13:21:21;;;;;;;;;12.00;9.33;;;;;;;;5025867;28;62227;-77
2022/10/10 13:23:47;;;;;;;;;12.33;7.67;;;;;;;;5043117;28;62074;-77
2022/10/10 13:26:23;;;;;;;;;11.67;7.33;;;;;;;;5025398;28;62070;-77
2022/10/10 13:28:49;;;;;;;;;6.00;6.00;;;;;;;;5026002;28;61939;-77
2022/10/10 13:31:15;;;;;;;;;12.00;7.67;;;;;;;;5029287;28;61819;-77
2022/10/10 13:33:41;;;;;;;;;11.67;8.67;;;;;;;;5043096;28;61917;-77
2022/10/10 13:36:08;;;;;;;;;12.00;8.33;;;;;;;;5043479;28;62332;-77
2022/10/10 13:38:34;;;;;;;;;9.67;8.33;;;;;;;;5024888;28;61724;-77
2022/10/10 13:41:01;;;;;;;;;5.00;5.00;;;;;;;;5044069;28;61696;-77
2022/10/10 13:43:26;;;;;;;;;11.67;7.33;;;;;;;;5025169;28;63846;-77
2022/10/10 13:45:56;;;;;;;;;9.00;8.00;;;;;;;;5043780;28;62071;-77
2022/10/10 13:48:36;;;;;;;;;9.33;8.00;;;;;;;;5025059;28;62144;-77
2022/10/10 13:51:12;;;;;;;;;10.67;6.00;;;;;;;;5043470;28;61750;-76
2022/10/10 13:53:40;;;;;;;;;5.67;5.67;;;;;;;;5042148;28;62399;-77
2022/10/10 13:56:24;;;;;;;;;10.33;6.33;;;;;;;;5043519;28;61845;-77
2022/10/10 13:58:57;;;;;;;;;6.00;6.00;;;;;;;;5043291;28;61827;-76
2022/10/10 14:01:23;;;;;;;;;5.00;5.00;;;;;;;;5042484;28;62038;-76
2022/10/10 14:03:49;;;;;;;;;6.33;5.67;;;;;;;;5042445;28;62744;-77
2022/10/10 14:06:23;;;;;;;;;9.67;6.67;;;;;;;;5024877;28;61979;-77
2022/10/10 14:08:49;;;;;;;;;9.67;6.67;;;;;;;;5043397;28;61940;-77
2022/10/10 14:11:16;;;;;;;;;8.00;8.00;;;;;;;;5043316;28;61956;-77
2022/10/10 14:13:45;;;;;;;;;11.00;6.50;;;;;;;;5042740;28;63110;-77
2022/10/10 14:16:20;;;;;;;;;8.33;7.00;;;;;;;;5043458;28;61751;-77
2022/10/10 14:18:45;;;;;;;;;8.25;7.00;;;;;;;;5024630;28;61849;-77
2022/10/10 14:21:11;;;;;;;;;11.00;7.00;;;;;;;;5043273;28;61753;-77
2022/10/10 14:23:36;;;;;;;;;7.75;7.75;;;;;;;;5041693;28;62688;-77
2022/10/10 14:26:02;;;;;;;;;10.50;10.00;;;;;;;;5025118;28;61754;-77
2022/10/10 14:28:29;;;;;;;;;12.50;8.25;;;;;;;;5042596;28;61948;-77
2022/10/10 14:30:54;;;;;;;;;11.67;8.00;;;;;;;;5046943;28;61862;-77
2022/10/10 14:33:20;;;;;;;;;6.00;5.00;;;;;;;;5023979;28;63743;-77
2022/10/10 14:35:47;;;;;;;;;9.25;7.00;;;;;;;;5042776;28;62128;-76
2022/10/10 14:38:12;;;;;;;;;7.00;7.00;;;;;;;;5024348;28;61861;-76